Time;durP1;ratioP1;P1;durP2;ratioP2;P2;SDS_P1;SDS_P2;PMS_P1;PMS_P2;Temp;Humidity;BMP_temperature;BMP_pressure;BME280_temperature;BME280_humidity;BME280_pressure;Samples;Min_cycle;Max_cycle;Signal;HPM_P1;HPM_P2
2023/03/08 06:00:15;;;;;;;15.67;13.97;;;4.80;97.20;;;;;;1708091;28;20186;-64
2023/03/08 06:01:10;;;;;;;14.55;12.82;;;4.80;97.20;;;;;;1708075;28;20692;-64
2023/03/08 06:02:02;;;;;;;19.17;13.18;;;4.80;97.20;;;;;;1707244;28;20207;-64
2023/03/08 06:02:53;;;;;;;14.13;12.27;;;4.80;97.20;;;;;;1707974;28;20217;-64
2023/03/08 06:03:46;;;;;;;15.93;12.77;;;4.80;97.20;;;;;;1707955;28;20208;-64
2023/03/08 06:04:36;;;;;;;14.93;12.40;;;4.80;97.20;;;;;;1708128;28;20450;-64
2023/03/08 06:05:28;;;;;;;15.27;13.07;;;4.80;97.20;;;;;;1707998;28;20198;-64
2023/03/08 06:06:20;;;;;;;16.65;13.00;;;4.80;97.20;;;;;;1708032;28;20666;-64
2023/03/08 06:07:11;;;;;;;14.27;12.07;;;4.80;97.20;;;;;;1708061;28;20253;-64
2023/03/08 06:08:02;;;;;;;15.95;13.25;;;4.80;97.20;;;;;;1711581;28;20198;-64
2023/03/08 06:08:55;;;;;;;15.00;12.93;;;4.80;97.20;;;;;;1708016;28;20206;-64
2023/03/08 06:09:45;;;;;;;15.23;13.05;;;4.90;97.20;;;;;;1711474;28;20948;-64
2023/03/08 06:10:37;;;;;;;16.07;12.80;;;4.90;97.20;;;;;;1714558;28;20730;-64
2023/03/08 06:11:28;;;;;;;15.20;12.88;;;4.90;97.20;;;;;;1709488;28;20198;-64
2023/03/08 06:12:19;;;;;;;14.70;13.10;;;4.90;97.20;;;;;;1710566;28;20193;-64
2023/03/08 06:13:10;;;;;;;17.20;13.02;;;4.90;97.20;;;;;;1711221;28;20578;-64
2023/03/08 06:14:02;;;;;;;16.87;13.57;;;4.90;97.20;;;;;;1711241;28;20225;-63
2023/03/08 06:14:53;;;;;;;15.95;13.40;;;4.90;97.20;;;;;;1714654;28;20209;-64
2023/03/08 06:15:46;;;;;;;15.43;12.93;;;4.90;97.20;;;;;;1714551;28;20206;-64
2023/03/08 06:16:37;;;;;;;15.07;13.38;;;4.90;97.20;;;;;;1714573;28;20206;-64
2023/03/08 06:17:28;;;;;;;15.00;13.13;;;4.90;97.20;;;;;;1714651;28;20213;-64
2023/03/08 06:18:19;;;;;;;15.18;13.20;;;5.00;97.20;;;;;;1714631;28;20429;-64
2023/03/08 06:19:11;;;;;;;18.53;13.67;;;5.00;97.20;;;;;;1714590;28;20689;-64
2023/03/08 06:20:01;;;;;;;14.50;13.00;;;5.00;97.20;;;;;;1714599;28;20209;-64
2023/03/08 06:20:58;;;;;;;15.13;13.53;;;5.00;97.20;;;;;;1710483;28;20214;-64
2023/03/08 06:21:49;;;;;;;15.05;13.40;;;5.00;97.20;;;;;;1711068;28;20234;-64
2023/03/08 06:22:41;;;;;;;17.03;15.23;;;5.00;97.20;;;;;;1707847;28;20205;-64
2023/03/08 06:23:33;;;;;;;17.75;14.00;;;5.10;97.20;;;;;;1712770;28;20205;-64
2023/03/08 06:24:25;;;;;;;15.82;13.80;;;5.10;97.20;;;;;;1714592;28;20202;-64
2023/03/08 06:25:16;;;;;;;17.17;14.02;;;5.10;97.20;;;;;;1714564;28;20290;-64
2023/03/08 06:26:09;;;;;;;17.40;13.40;;;5.10;97.20;;;;;;1714501;28;20281;-64
2023/03/08 06:27:00;;;;;;;15.07;12.65;;;5.10;97.20;;;;;;1712580;28;20460;-63
2023/03/08 06:27:52;;;;;;;17.30;14.00;;;5.10;97.20;;;;;;1707875;28;20225;-64
2023/03/08 06:28:43;;;;;;;16.02;13.43;;;5.10;97.20;;;;;;1707876;28;20676;-64
2023/03/08 06:29:35;;;;;;;16.40;14.03;;;5.10;97.20;;;;;;1707952;28;20804;-64
2023/03/08 06:30:25;;;;;;;16.73;14.30;;;5.10;97.20;;;;;;1707602;28;20711;-64
2023/03/08 06:31:19;;;;;;;15.87;13.97;;;5.10;97.20;;;;;;1707720;28;20890;-64
2023/03/08 06:32:10;;;;;;;17.17;14.30;;;5.10;97.20;;;;;;1707851;28;20221;-64
2023/03/08 06:33:01;;;;;;;17.50;14.50;;;5.20;97.20;;;;;;1707736;28;20210;-64
2023/03/08 06:33:52;;;;;;;18.75;15.10;;;5.20;97.20;;;;;;1707686;28;20202;-64
2023/03/08 06:34:45;;;;;;;16.73;14.93;;;5.20;97.20;;;;;;1707762;28;20191;-64
2023/03/08 06:35:36;;;;;;;15.75;14.05;;;5.20;97.20;;;;;;1707931;28;20661;-64
2023/03/08 06:36:28;;;;;;;16.03;14.30;;;5.20;97.20;;;;;;1707287;28;20551;-64
2023/03/08 06:37:19;;;;;;;16.70;14.90;;;5.20;97.20;;;;;;1707864;28;20202;-64
2023/03/08 06:38:10;;;;;;;17.47;14.50;;;5.20;97.20;;;;;;1707681;28;20230;-64
2023/03/08 06:39:02;;;;;;;16.52;13.00;;;5.20;97.20;;;;;;1714019;28;21129;-64
2023/03/08 06:39:55;;;;;;;15.65;14.05;;;5.20;97.20;;;;;;1711763;28;20200;-64
2023/03/08 06:40:46;;;;;;;16.30;13.90;;;5.20;97.20;;;;;;1707679;28;20226;-63
2023/03/08 06:41:37;;;;;;;16.50;14.27;;;5.20;97.20;;;;;;1707445;28;20297;-64
2023/03/08 06:42:28;;;;;;;23.55;14.95;;;5.20;97.20;;;;;;1707759;28;20591;-64
2023/03/08 06:43:20;;;;;;;16.70;14.20;;;5.20;97.20;;;;;;1708248;28;20289;-63
2023/03/08 06:44:11;;;;;;;17.35;13.80;;;5.30;97.20;;;;;;1710726;28;20208;-64
2023/03/08 06:45:03;;;;;;;15.80;14.20;;;5.30;97.20;;;;;;1714364;28;20217;-64
2023/03/08 06:45:54;;;;;;;18.85;13.52;;;5.30;97.20;;;;;;1708758;28;20353;-65
2023/03/08 06:46:47;;;;;;;17.98;14.55;;;5.30;97.20;;;;;;1707703;28;20194;-64
2023/03/08 06:47:38;;;;;;;16.48;14.10;;;5.30;97.20;;;;;;1707755;28;20715;-64
2023/03/08 06:48:29;;;;;;;19.17;15.37;;;5.30;97.20;;;;;;1707767;28;20587;-64
2023/03/08 06:49:21;;;;;;;15.98;14.27;;;5.40;97.20;;;;;;1707836;28;20214;-64
2023/03/08 06:50:12;;;;;;;17.00;13.32;;;5.40;97.20;;;;;;1707690;28;20675;-65
2023/03/08 06:51:04;;;;;;;16.75;14.52;;;5.40;97.20;;;;;;1707755;28;20203;-64
2023/03/08 06:51:56;;;;;;;18.55;15.60;;;5.40;97.20;;;;;;1707492;28;20290;-64
2023/03/08 06:52:46;;;;;;;18.55;14.23;;;5.40;97.20;;;;;;1707667;28;20586;-64
2023/03/08 06:53:38;;;;;;;16.10;14.33;;;5.40;97.20;;;;;;1708758;28;20216;-64
2023/03/08 06:54:29;;;;;;;17.23;13.90;;;5.40;97.20;;;;;;1712595;28;20201;-65
2023/03/08 06:55:21;;;;;;;15.43;13.80;;;5.50;97.20;;;;;;1713767;28;20205;-64
2023/03/08 06:56:14;;;;;;;16.08;14.45;;;5.50;97.20;;;;;;1714898;28;20202;-65
2023/03/08 06:57:05;;;;;;;16.85;14.25;;;5.50;97.20;;;;;;1713827;28;20202;-64
2023/03/08 06:57:56;;;;;;;17.30;13.65;;;5.50;97.20;;;;;;1714313;28;20202;-64
2023/03/08 06:58:48;;;;;;;17.13;14.70;;;5.50;97.20;;;;;;1714370;28;20216;-64
2023/03/08 06:59:39;;;;;;;18.17;14.20;;;5.60;97.20;;;;;;1714329;28;20739;-65
2023/03/08 07:00:31;;;;;;;17.37;14.60;;;5.60;97.20;;;;;;1714245;28;20615;-64
2023/03/08 07:01:21;;;;;;;15.45;13.90;;;5.60;97.20;;;;;;1714049;28;20206;-62
2023/03/08 07:02:14;;;;;;;17.57;14.60;;;5.60;97.20;;;;;;1713975;28;20202;-63
2023/03/08 07:03:05;;;;;;;16.65;14.10;;;5.60;97.20;;;;;;1714129;28;20202;-63
2023/03/08 07:03:58;;;;;;;15.97;14.37;;;5.60;97.20;;;;;;1708958;28;20203;-63
2023/03/08 07:04:49;;;;;;;15.40;13.43;;;5.70;97.20;;;;;;1707669;28;20213;-63
2023/03/08 07:05:41;;;;;;;16.23;14.17;;;5.70;97.20;;;;;;1707674;28;20205;-64
2023/03/08 07:06:32;;;;;;;18.90;14.85;;;5.70;97.20;;;;;;1707692;28;20454;-64
2023/03/08 07:07:24;;;;;;;16.98;14.88;;;5.70;97.20;;;;;;1707555;28;20213;-63
2023/03/08 07:08:15;;;;;;;16.35;14.65;;;5.70;97.20;;;;;;1707659;28;20235;-63
2023/03/08 07:09:06;;;;;;;17.30;15.10;;;5.70;97.20;;;;;;1707594;28;20199;-64
2023/03/08 07:09:57;;;;;;;19.35;14.60;;;5.70;97.20;;;;;;1707634;28;20249;-63
2023/03/08 07:10:49;;;;;;;15.83;14.00;;;5.70;97.20;;;;;;1709082;28;20222;-65
2023/03/08 07:11:40;;;;;;;16.58;14.20;;;5.70;97.20;;;;;;1710553;28;20198;-65
2023/03/08 07:12:31;;;;;;;17.17;14.33;;;5.70;97.20;;;;;;1709986;28;20186;-65
2023/03/08 07:13:22;;;;;;;15.43;13.43;;;5.70;97.20;;;;;;1712791;28;20194;-66
2023/03/08 07:14:15;;;;;;;16.73;15.03;;;5.70;97.20;;;;;;1714208;28;20198;-65
2023/03/08 07:15:06;;;;;;;18.90;15.13;;;5.70;97.20;;;;;;1714230;28;20205;-66
2023/03/08 07:15:58;;;;;;;19.52;15.85;;;5.70;97.20;;;;;;1714248;28;20559;-66
2023/03/08 07:16:49;;;;;;;14.48;12.98;;;5.80;97.20;;;;;;1714357;28;20202;-66
2023/03/08 07:17:42;;;;;;;17.70;15.13;;;5.80;97.20;;;;;;1714190;28;20201;-65
2023/03/08 07:18:33;;;;;;;15.80;13.43;;;5.80;97.20;;;;;;1712294;28;20264;-65
2023/03/08 07:19:25;;;;;;;17.90;15.90;;;5.80;97.20;;;;;;1710060;28;20199;-65
2023/03/08 07:20:18;;;;;;;16.42;14.27;;;5.80;97.20;;;;;;1707365;28;20263;-65
2023/03/08 07:21:16;;;;;;;15.05;13.50;;;5.80;97.20;;;;;;1707281;28;20210;-65
2023/03/08 07:22:07;;;;;;;16.77;13.88;;;5.80;97.20;;;;;;1707527;28;20568;-65
2023/03/08 07:23:00;;;;;;;18.50;15.20;;;5.90;97.20;;;;;;1707439;28;20202;-65
2023/03/08 07:23:52;;;;;;;15.38;13.77;;;5.90;97.20;;;;;;1707639;28;20461;-66
2023/03/08 07:24:46;;;;;;;17.17;15.20;;;5.90;97.20;;;;;;1711407;28;20230;-66
2023/03/08 07:25:39;;;;;;;16.88;15.13;;;5.90;97.20;;;;;;1713952;28;20567;-65
2023/03/08 07:26:30;;;;;;;16.10;14.40;;;5.90;97.20;;;;;;1720787;28;20279;-66
2023/03/08 07:27:21;;;;;;;17.60;14.00;;;6.00;97.20;;;;;;1714480;28;20194;-65
2023/03/08 07:28:12;;;;;;;16.83;14.13;;;6.00;97.20;;;;;;1714176;28;20212;-66
2023/03/08 07:29:04;;;;;;;16.00;14.30;;;6.00;97.20;;;;;;1714112;28;20208;-66
2023/03/08 07:29:54;;;;;;;16.48;14.30;;;6.00;97.20;;;;;;1714114;28;20205;-66
2023/03/08 07:30:47;;;;;;;16.80;13.80;;;6.00;97.20;;;;;;1714946;28;20234;-65
2023/03/08 07:31:38;;;;;;;16.85;14.68;;;6.00;97.20;;;;;;1720557;28;20745;-66
2023/03/08 07:32:29;;;;;;;14.23;12.67;;;6.00;97.20;;;;;;1720832;28;20568;-66
2023/03/08 07:33:21;;;;;;;16.10;14.40;;;6.10;97.20;;;;;;1720800;28;20659;-66
2023/03/08 07:34:13;;;;;;;16.67;13.90;;;6.10;97.20;;;;;;1720772;28;20215;-66
2023/03/08 07:35:05;;;;;;;16.67;13.57;;;6.10;97.20;;;;;;1720556;28;20212;-66
2023/03/08 07:36:00;;;;;;;16.42;14.63;;;6.10;97.20;;;;;;1720323;28;20212;-66
2023/03/08 07:36:51;;;;;;;16.33;14.57;;;6.10;97.20;;;;;;1717470;28;20737;-66
2023/03/08 07:37:45;;;;;;;14.20;12.70;;;6.10;97.20;;;;;;1713288;28;20643;-66
2023/03/08 07:38:35;;;;;;;14.65;13.10;;;6.10;97.20;;;;;;1713439;28;20515;-66
2023/03/08 07:39:27;;;;;;;16.93;12.77;;;6.20;97.20;;;;;;1714118;28;20202;-66
2023/03/08 07:40:18;;;;;;;14.20;12.70;;;6.20;97.20;;;;;;1714055;28;20206;-66
2023/03/08 07:41:10;;;;;;;14.20;12.80;;;6.20;97.20;;;;;;1713428;28;20208;-66
2023/03/08 07:42:01;;;;;;;15.65;13.98;;;6.10;97.20;;;;;;1713578;28;20593;-65
2023/03/08 07:42:53;;;;;;;14.87;13.20;;;6.10;97.20;;;;;;1714542;28;20602;-66
2023/03/08 07:43:43;;;;;;;13.60;12.27;;;6.10;97.20;;;;;;1720653;28;20284;-65
2023/03/08 07:44:36;;;;;;;13.23;11.83;;;6.10;97.20;;;;;;1720826;28;20209;-66
2023/03/08 07:45:26;;;;;;;16.65;11.95;;;6.10;97.20;;;;;;1720709;28;20209;-66
2023/03/08 07:46:18;;;;;;;12.80;11.40;;;6.10;97.20;;;;;;1720753;28;20210;-65
2023/03/08 07:47:09;;;;;;;14.02;11.98;;;6.10;97.20;;;;;;1720802;28;20212;-66
2023/03/08 07:48:01;;;;;;;12.20;10.70;;;6.10;97.20;;;;;;1720242;28;20201;-66
2023/03/08 07:48:53;;;;;;;12.75;11.35;;;6.00;97.20;;;;;;1720524;28;20444;-66
2023/03/08 07:49:44;;;;;;;15.23;12.00;;;6.00;97.20;;;;;;1720736;28;20288;-66
2023/03/08 07:50:36;;;;;;;14.25;12.38;;;6.00;97.20;;;;;;1720727;28;20225;-65
2023/03/08 07:51:27;;;;;;;12.20;10.95;;;6.00;97.20;;;;;;1720432;28;20200;-65
2023/03/08 07:52:18;;;;;;;14.85;11.85;;;6.00;97.20;;;;;;1720680;28;20646;-66
2023/03/08 07:53:10;;;;;;;11.93;10.73;;;6.00;97.20;;;;;;1720595;28;20201;-65
2023/03/08 07:54:01;;;;;;;12.73;11.25;;;6.00;97.20;;;;;;1716549;28;20229;-66
2023/03/08 07:54:53;;;;;;;15.13;11.97;;;6.00;97.20;;;;;;1707430;28;20205;-66
2023/03/08 07:55:43;;;;;;;14.77;11.80;;;6.00;97.20;;;;;;1708502;28;20465;-66
2023/03/08 07:56:35;;;;;;;14.50;12.60;;;6.00;97.20;;;;;;1713737;28;20205;-65
2023/03/08 07:57:26;;;;;;;16.08;14.48;;;6.10;97.20;;;;;;1713963;28;20202;-66
2023/03/08 07:58:17;;;;;;;14.50;12.40;;;6.10;97.20;;;;;;1714044;28;20198;-66
2023/03/08 07:59:08;;;;;;;14.90;12.95;;;6.00;97.20;;;;;;1713705;28;20232;-66
2023/03/08 08:00:00;;;;;;;16.20;13.03;;;6.10;97.20;;;;;;1714058;28;20202;-65
2023/03/08 08:00:50;;;;;;;13.43;12.02;;;6.10;97.20;;;;;;1713928;28;20229;-66
2023/03/08 08:01:42;;;;;;;14.10;12.10;;;6.10;97.20;;;;;;1707349;28;20205;-66
2023/03/08 08:02:33;;;;;;;13.95;11.63;;;6.10;97.20;;;;;;1707255;28;20206;-66
2023/03/08 08:03:25;;;;;;;14.63;11.80;;;6.10;97.20;;;;;;1707215;28;20194;-65
2023/03/08 08:04:17;;;;;;;12.95;11.65;;;6.10;97.20;;;;;;1707335;28;20446;-66
2023/03/08 08:05:09;;;;;;;15.10;12.77;;;6.10;97.20;;;;;;1707337;28;20264;-66
2023/03/08 08:06:01;;;;;;;15.63;12.25;;;6.10;97.20;;;;;;1707374;28;20233;-65
2023/03/08 08:06:53;;;;;;;13.23;11.88;;;6.10;97.20;;;;;;1707425;28;20195;-66
2023/03/08 08:07:45;;;;;;;14.02;11.77;;;6.10;97.20;;;;;;1707226;28;20206;-66
2023/03/08 08:08:37;;;;;;;16.77;11.57;;;6.10;97.20;;;;;;1707363;28;20202;-65
2023/03/08 08:09:28;;;;;;;15.43;12.85;;;6.10;97.20;;;;;;1707053;28;20198;-66
2023/03/08 08:10:19;;;;;;;14.50;11.37;;;6.10;97.20;;;;;;1707235;28;20212;-66
2023/03/08 08:11:12;;;;;;;13.43;11.55;;;6.10;97.20;;;;;;1706770;28;20206;-66
2023/03/08 08:12:04;;;;;;;13.82;12.00;;;6.10;97.20;;;;;;1707341;28;20256;-66
2023/03/08 08:12:55;;;;;;;13.27;11.32;;;6.10;97.20;;;;;;1707271;28;20199;-66
2023/03/08 08:13:46;;;;;;;13.50;11.55;;;6.10;97.20;;;;;;1707083;28;20233;-66
2023/03/08 08:14:38;;;;;;;15.50;11.90;;;6.10;97.20;;;;;;1707300;28;20206;-65
2023/03/08 08:15:29;;;;;;;12.32;11.05;;;6.10;97.20;;;;;;1707275;28;20449;-66
2023/03/08 08:16:21;;;;;;;12.23;10.75;;;6.10;97.20;;;;;;1707151;28;20193;-66
2023/03/08 08:17:12;;;;;;;14.23;11.57;;;6.10;97.20;;;;;;1707286;28;20217;-66
2023/03/08 08:18:04;;;;;;;13.03;11.20;;;6.20;97.20;;;;;;1707306;28;20221;-66
2023/03/08 08:18:54;;;;;;;12.30;11.00;;;6.20;97.20;;;;;;1706736;28;20256;-66
2023/03/08 08:19:48;;;;;;;12.00;10.80;;;6.20;97.20;;;;;;1706970;28;20202;-66
2023/03/08 08:20:39;;;;;;;15.40;11.40;;;6.20;97.20;;;;;;1710446;28;20224;-66
2023/03/08 08:21:30;;;;;;;13.30;11.37;;;6.20;97.20;;;;;;1713641;28;20197;-66
2023/03/08 08:22:21;;;;;;;14.07;12.05;;;6.30;97.20;;;;;;1707708;28;20199;-65
2023/03/08 08:23:13;;;;;;;14.43;11.70;;;6.30;97.20;;;;;;1707191;28;20202;-65
2023/03/08 08:24:04;;;;;;;13.52;11.23;;;6.30;97.20;;;;;;1707290;28;20960;-66
2023/03/08 08:24:56;;;;;;;13.93;12.23;;;6.30;97.20;;;;;;1707265;28;20207;-66
2023/03/08 08:25:49;;;;;;;12.65;11.35;;;6.40;97.20;;;;;;1707260;28;20218;-66
2023/03/08 08:26:40;;;;;;;13.88;12.38;;;6.40;97.20;;;;;;1710515;28;20197;-66
2023/03/08 08:27:31;;;;;;;12.52;11.23;;;6.40;97.20;;;;;;1713704;28;20225;-66
2023/03/08 08:28:23;;;;;;;14.83;11.10;;;6.40;97.20;;;;;;1713955;28;20212;-65
2023/03/08 08:29:14;;;;;;;13.55;12.15;;;6.40;97.20;;;;;;1713547;28;20438;-66
2023/03/08 08:30:07;;;;;;;15.53;12.17;;;6.50;97.20;;;;;;1713825;28;20208;-66
2023/03/08 08:31:00;;;;;;;13.30;11.90;;;6.50;97.20;;;;;;1713528;28;20237;-66
2023/03/08 08:31:52;;;;;;;16.67;12.15;;;6.50;97.20;;;;;;1707090;28;20656;-66
2023/03/08 08:32:43;;;;;;;16.73;12.75;;;6.50;97.20;;;;;;1707176;28;20285;-66
2023/03/08 08:33:35;;;;;;;14.93;11.83;;;6.50;97.20;;;;;;1708253;28;20198;-66
2023/03/08 08:34:26;;;;;;;15.27;12.85;;;6.50;97.20;;;;;;1707240;28;20210;-66
2023/03/08 08:35:19;;;;;;;15.00;12.87;;;6.50;97.20;;;;;;1707139;28;20220;-66
2023/03/08 08:36:12;;;;;;;13.75;12.10;;;6.50;97.20;;;;;;1707210;28;20606;-66
2023/03/08 08:37:04;;;;;;;14.80;12.50;;;6.50;97.20;;;;;;1708261;28;20206;-66
2023/03/08 08:37:55;;;;;;;14.88;11.98;;;6.50;97.20;;;;;;1713910;28;20201;-66
2023/03/08 08:38:47;;;;;;;14.00;11.73;;;6.60;97.20;;;;;;1713801;28;20200;-65
2023/03/08 08:39:38;;;;;;;13.93;12.07;;;6.60;97.20;;;;;;1707813;28;20211;-66
2023/03/08 08:40:30;;;;;;;14.88;13.05;;;6.60;97.20;;;;;;1707201;28;20198;-66
2023/03/08 08:41:22;;;;;;;14.15;11.60;;;6.70;97.20;;;;;;1709645;28;20213;-66
2023/03/08 08:42:13;;;;;;;14.13;12.45;;;6.70;97.20;;;;;;1713862;28;20289;-66
2023/03/08 08:43:04;;;;;;;15.27;12.10;;;6.70;97.20;;;;;;1713736;28;20233;-66
2023/03/08 08:43:57;;;;;;;14.17;12.50;;;6.80;97.20;;;;;;1708130;28;20225;-65
2023/03/08 08:44:49;;;;;;;15.20;12.13;;;6.80;97.20;;;;;;1707236;28;20218;-66
2023/03/08 08:45:44;;;;;;;15.32;12.80;;;6.80;97.20;;;;;;1707214;28;20199;-66
2023/03/08 08:46:36;;;;;;;13.65;12.25;;;6.90;97.20;;;;;;1707178;28;20203;-66
2023/03/08 08:47:27;;;;;;;14.98;12.70;;;6.90;97.20;;;;;;1707286;28;20575;-66
2023/03/08 08:48:19;;;;;;;13.83;11.43;;;6.90;97.20;;;;;;1707247;28;20233;-66
2023/03/08 08:49:10;;;;;;;13.65;12.07;;;7.00;97.20;;;;;;1709192;28;20441;-66
2023/03/08 08:50:02;;;;;;;13.87;11.90;;;7.00;97.20;;;;;;1710095;28;20202;-66
2023/03/08 08:50:54;;;;;;;13.88;12.30;;;7.10;97.20;;;;;;1713826;28;20988;-65
2023/03/08 08:51:46;;;;;;;15.70;12.60;;;7.10;97.20;;;;;;1707396;28;20202;-65
2023/03/08 08:52:36;;;;;;;15.30;13.13;;;7.20;97.20;;;;;;1707198;28;20678;-66
2023/03/08 08:53:28;;;;;;;14.27;12.63;;;7.20;97.20;;;;;;1707151;28;20675;-66
2023/03/08 08:54:20;;;;;;;14.18;12.63;;;7.20;97.20;;;;;;1707152;28;20207;-66
2023/03/08 08:55:11;;;;;;;14.32;12.38;;;7.20;97.20;;;;;;1708171;28;20207;-66
2023/03/08 08:56:11;;;;;;;13.40;12.00;;;7.20;97.20;;;;;;1718019;28;20498;-66
2023/03/08 08:57:03;;;;;;;14.45;12.05;;;7.30;97.20;;;;;;1718208;28;20280;-66
2023/03/08 08:57:54;;;;;;;15.75;12.65;;;7.30;97.20;;;;;;1713563;28;20221;-66
2023/03/08 08:58:47;;;;;;;14.23;12.73;;;7.30;97.20;;;;;;1713737;28;20289;-66
2023/03/08 08:59:38;;;;;;;14.30;12.55;;;7.30;97.20;;;;;;1714237;28;20268;-67
2023/03/08 09:00:30;;;;;;;14.93;13.00;;;7.30;97.20;;;;;;1710168;28;20646;-66
2023/03/08 09:01:24;;;;;;;15.95;14.23;;;7.30;97.20;;;;;;1710342;28;20265;-66
2023/03/08 09:02:14;;;;;;;15.82;14.07;;;7.30;97.20;;;;;;1714705;28;20209;-66
2023/03/08 09:03:06;;;;;;;14.63;13.13;;;7.30;97.20;;;;;;1714924;28;20208;-66
2023/03/08 09:03:58;;;;;;;15.35;13.75;;;7.30;97.20;;;;;;1715077;28;20241;-65
2023/03/08 09:04:49;;;;;;;17.02;12.80;;;7.30;97.20;;;;;;1714765;28;20194;-66
2023/03/08 09:05:42;;;;;;;15.80;12.35;;;7.40;97.20;;;;;;1715024;28;20234;-66
2023/03/08 09:06:35;;;;;;;14.15;12.52;;;7.40;97.20;;;;;;1715087;28;20233;-66
2023/03/08 09:07:26;;;;;;;15.95;12.60;;;7.40;97.20;;;;;;1714970;28;20206;-66
2023/03/08 09:08:18;;;;;;;13.50;12.10;;;7.40;97.20;;;;;;1715097;28;20210;-66
2023/03/08 09:09:09;;;;;;;14.40;12.98;;;7.30;97.20;;;;;;1714594;28;20480;-66
2023/03/08 09:10:00;;;;;;;14.03;11.67;;;7.30;97.20;;;;;;1715072;28;20213;-65
2023/03/08 09:10:51;;;;;;;17.95;11.95;;;7.30;97.20;;;;;;1714927;28;20758;-65
2023/03/08 09:11:43;;;;;;;15.03;13.53;;;7.30;97.20;;;;;;1709413;28;20593;-66
2023/03/08 09:12:34;;;;;;;12.55;11.23;;;7.30;97.20;;;;;;1708321;28;20206;-66
2023/03/08 09:13:26;;;;;;;14.50;13.00;;;7.30;97.20;;;;;;1708298;28;20207;-66
2023/03/08 09:14:16;;;;;;;15.88;13.13;;;7.30;97.20;;;;;;1708336;28;20450;-66
2023/03/08 09:15:10;;;;;;;14.10;12.60;;;7.30;97.20;;;;;;1708386;28;20286;-66
2023/03/08 09:16:00;;;;;;;15.32;12.52;;;7.30;97.20;;;;;;1708326;28;20225;-66
2023/03/08 09:16:52;;;;;;;14.50;13.00;;;7.30;97.20;;;;;;1708344;28;20261;-66
2023/03/08 09:17:43;;;;;;;15.13;12.90;;;7.30;97.20;;;;;;1708296;28;20291;-66
2023/03/08 09:18:34;;;;;;;14.93;12.93;;;7.30;97.20;;;;;;1708337;28;20294;-66
2023/03/08 09:19:25;;;;;;;15.40;13.00;;;7.30;97.20;;;;;;1708326;28;20230;-66
2023/03/08 09:20:18;;;;;;;13.87;11.83;;;7.30;97.20;;;;;;1708255;28;20202;-66
2023/03/08 09:21:10;;;;;;;14.40;12.27;;;7.30;97.20;;;;;;1710657;28;20198;-66
2023/03/08 09:22:03;;;;;;;15.00;11.77;;;7.30;97.20;;;;;;1714956;28;20574;-66
2023/03/08 09:22:53;;;;;;;13.60;11.98;;;7.30;97.20;;;;;;1709858;28;20226;-66
2023/03/08 09:23:46;;;;;;;22.90;13.90;;;7.30;97.20;;;;;;1708321;28;20205;-66
2023/03/08 09:24:36;;;;;;;14.52;12.00;;;7.30;97.20;;;;;;1708397;28;20202;-66
2023/03/08 09:25:28;;;;;;;14.90;13.17;;;7.40;97.20;;;;;;1708387;28;20199;-65
2023/03/08 09:26:19;;;;;;;16.00;12.20;;;7.40;97.20;;;;;;1708235;28;20207;-65
2023/03/08 09:27:11;;;;;;;17.83;12.23;;;7.40;97.20;;;;;;1708363;28;20211;-65
2023/03/08 09:28:01;;;;;;;14.98;12.45;;;7.40;97.20;;;;;;1708236;28;20459;-65
2023/03/08 09:28:53;;;;;;;15.40;12.90;;;7.40;97.20;;;;;;1708323;28;20205;-65
2023/03/08 09:29:44;;;;;;;14.85;12.82;;;7.50;97.20;;;;;;1710515;28;20708;-65
2023/03/08 09:30:36;;;;;;;12.83;11.53;;;7.50;97.20;;;;;;1714432;28;20579;-66
2023/03/08 09:31:27;;;;;;;16.10;12.57;;;7.50;97.20;;;;;;1711682;28;20629;-66
2023/03/08 09:32:18;;;;;;;17.10;14.23;;;7.50;97.20;;;;;;1708226;28;20202;-66
2023/03/08 09:33:09;;;;;;;16.50;13.70;;;7.50;97.20;;;;;;1709011;28;20209;-66
2023/03/08 09:34:03;;;;;;;15.30;12.67;;;7.50;97.20;;;;;;1708276;28;20202;-66
2023/03/08 09:34:54;;;;;;;15.27;13.02;;;7.50;97.20;;;;;;1711209;28;20202;-66
2023/03/08 09:35:56;;;;;;;18.03;14.33;;;7.40;97.20;;;;;;1714810;28;20285;-66
2023/03/08 09:36:47;;;;;;;18.95;14.68;;;7.40;97.20;;;;;;1714774;28;20450;-66
2023/03/08 09:37:39;;;;;;;16.08;13.77;;;7.40;97.20;;;;;;1714512;28;20641;-66
2023/03/08 09:38:31;;;;;;;16.00;13.02;;;7.40;97.20;;;;;;1714776;28;20212;-66
2023/03/08 09:39:22;;;;;;;16.15;12.38;;;7.40;97.20;;;;;;1714427;28;20375;-66
2023/03/08 09:40:19;;;;;;;15.23;12.53;;;7.40;97.20;;;;;;1714825;28;20333;-66
2023/03/08 09:41:34;;;;;;;14.45;12.63;;;7.40;97.20;;;;;;1713620;28;20686;-67
2023/03/08 09:42:28;;;;;;;13.73;11.63;;;7.40;97.20;;;;;;1706378;28;20238;-66
2023/03/08 09:43:30;;;;;;;15.15;12.48;;;7.50;97.20;;;;;;1708073;28;20229;-66
2023/03/08 09:44:42;;;;;;;13.48;12.07;;;7.50;97.20;;;;;;1708219;28;20692;-66
2023/03/08 09:45:34;;;;;;;16.20;12.55;;;7.50;97.20;;;;;;1709135;28;20230;-66
2023/03/08 09:46:32;;;;;;;15.60;12.82;;;7.60;97.20;;;;;;1714758;28;20288;-66
2023/03/08 09:47:31;;;;;;;13.88;12.27;;;7.60;97.20;;;;;;1714450;28;20289;-66
2023/03/08 09:48:28;;;;;;;14.95;12.57;;;7.70;97.20;;;;;;1714831;28;20221;-66
2023/03/08 09:49:27;;;;;;;12.82;11.20;;;7.70;97.20;;;;;;1713854;28;20289;-66
2023/03/08 09:50:32;;;;;;;11.55;10.18;;;7.70;97.20;;;;;;1711636;28;20210;-66
2023/03/08 09:51:28;;;;;;;15.13;12.43;;;7.70;97.20;;;;;;1712372;28;20263;-66
2023/03/08 09:52:30;;;;;;;13.38;10.93;;;7.80;97.20;;;;;;1709087;28;20207;-66
2023/03/08 09:53:27;;;;;;;12.05;10.85;;;7.80;97.20;;;;;;1712843;28;20298;-66
2023/03/08 09:54:23;;;;;;;12.38;10.38;;;7.80;97.20;;;;;;1713109;28;20214;-65
2023/03/08 09:55:19;;;;;;;11.85;10.75;;;7.80;97.20;;;;;;1708155;28;20211;-65
2023/03/08 09:56:19;;;;;;;12.10;10.90;;;7.90;97.20;;;;;;1718740;28;20189;-66
2023/03/08 09:57:16;;;;;;;12.25;10.95;;;7.90;97.20;;;;;;1721425;28;20698;-66
2023/03/08 09:58:17;;;;;;;11.63;10.35;;;7.90;97.20;;;;;;1721454;28;20571;-66
2023/03/08 09:59:12;;;;;;;12.85;11.38;;;7.90;97.20;;;;;;1717679;28;20202;-66
2023/03/08 10:00:10;;;;;;;12.65;11.13;;;8.00;97.20;;;;;;1714824;28;20656;-66
2023/03/08 10:01:12;;;;;;;11.82;10.57;;;8.00;97.20;;;;;;1712954;28;20206;-67
2023/03/08 10:02:18;;;;;;;11.65;10.18;;;8.10;97.20;;;;;;1709631;28;20218;-66
2023/03/08 10:03:32;;;;;;;11.25;10.15;;;8.10;97.20;;;;;;1714630;28;20206;-66
2023/03/08 10:04:33;;;;;;;14.30;9.32;;;8.20;97.20;;;;;;1714164;28;20598;-63
2023/03/08 10:05:29;;;;;;;10.38;9.27;;;8.20;97.20;;;;;;1714860;28;20230;-63
2023/03/08 10:06:27;;;;;;;10.48;9.35;;;8.30;97.20;;;;;;1714366;28;20205;-63
2023/03/08 10:07:27;;;;;;;10.38;9.38;;;8.30;97.20;;;;;;1714806;28;20338;-63
2023/03/08 10:08:25;;;;;;;9.73;8.68;;;8.40;97.20;;;;;;1714755;28;20626;-63
2023/03/08 10:09:27;;;;;;;10.68;9.25;;;8.40;97.20;;;;;;1711724;28;20229;-63
2023/03/08 10:10:39;;;;;;;11.30;9.70;;;8.40;97.20;;;;;;1708041;28;20206;-63
2023/03/08 10:11:36;;;;;;;9.70;8.73;;;8.50;97.20;;;;;;1706983;29;20211;-63
2023/03/08 10:12:34;;;;;;;9.13;7.95;;;8.50;97.20;;;;;;1708020;28;20251;-64
2023/03/08 10:13:32;;;;;;;10.20;8.90;;;8.50;97.20;;;;;;1707877;29;20281;-64
2023/03/08 10:14:29;;;;;;;8.85;7.95;;;8.50;97.20;;;;;;1708039;29;20206;-64
2023/03/08 10:15:22;;;;;;;9.80;8.32;;;8.50;97.20;;;;;;1707964;28;20202;-64
2023/03/08 10:16:20;;;;;;;7.68;6.97;;;8.50;97.20;;;;;;1708020;29;20211;-63
2023/03/08 10:17:16;;;;;;;8.85;7.55;;;8.50;97.20;;;;;;1708105;28;20671;-64
2023/03/08 10:18:15;;;;;;;7.90;7.18;;;8.50;97.20;;;;;;1707895;28;20203;-63
2023/03/08 10:19:15;;;;;;;8.27;7.47;;;8.50;97.20;;;;;;1708785;28;20202;-64
2023/03/08 10:20:15;;;;;;;9.15;7.35;;;8.50;97.20;;;;;;1714636;28;20202;-64
2023/03/08 10:21:11;;;;;;;8.32;7.32;;;8.50;97.20;;;;;;1712798;28;20205;-64
2023/03/08 10:22:07;;;;;;;8.85;7.68;;;8.60;97.20;;;;;;1708020;28;20206;-63
2023/03/08 10:23:00;;;;;;;7.97;7.18;;;8.60;97.20;;;;;;1707806;28;20210;-64
2023/03/08 10:23:58;;;;;;;8.15;6.95;;;8.60;97.20;;;;;;1710789;28;20206;-64
2023/03/08 10:24:55;;;;;;;8.73;7.70;;;8.60;97.20;;;;;;1714568;28;20210;-63
2023/03/08 10:25:47;;;;;;;8.60;7.38;;;8.60;97.20;;;;;;1707938;29;20211;-63
2023/03/08 10:26:41;;;;;;;7.82;6.88;;;8.60;97.20;;;;;;1707977;28;20206;-63
2023/03/08 10:27:33;;;;;;;7.78;6.22;;;8.60;97.20;;;;;;1707961;28;20217;-63
2023/03/08 10:28:26;;;;;;;7.78;6.97;;;8.60;97.20;;;;;;1707900;29;20212;-63
2023/03/08 10:29:17;;;;;;;7.32;6.63;;;8.70;97.20;;;;;;1707936;28;20207;-63
2023/03/08 10:30:15;;;;;;;7.07;6.37;;;8.70;97.20;;;;;;1707948;29;20297;-64
2023/03/08 10:31:20;;;;;;;7.72;6.82;;;8.70;97.20;;;;;;1714412;28;20461;-63
2023/03/08 10:32:12;;;;;;;8.02;7.25;;;8.70;97.20;;;;;;1714516;28;20247;-63